Swampers, Louisiana
Current Conditions -  °F | °C
As of 8:53 PM on Wednesday 22 Oct 2014 (Local Time) from KMLU Reporting Station
Clear Clear  
Wind Chill: 60°   Ceiling: Unl
Heat Index: 60°   Visibility: 10mi
Dew Point: 51°   Wind: 0mph
Humidity: 72%   Direction: NA
Pressure: 30.15"   Gusts: NA
Location:  32.1434°N, 91.7026°W
Report Text: KMLU 230153Z 00000KT 10SM CLR 16/11 A3015 RMK AO2 SLP207 T01560106
Loading
Personal Weather Stations






























Interactive Weather Map
Tropical Storm Tracking
New forecast layout! Learn more

10-Day Weather Forecast

Advertisements
Track Severe Weather on mobile